Time;durP1;ratioP1;P1;durP2;ratioP2;P2;SDS_P1;SDS_P2;PMS_P1;PMS_P2;Temp;Humidity;BMP_temperature;BMP_pressure;BME280_temperature;BME280_humidity;BME280_pressure;Samples;Min_cycle;Max_cycle;Signal;HPM_P1;HPM_P2
2021/06/20 00:00:52;;;;;;;30.42;14.77;;;;;;;10.54;91.77;99264.88;4891947;29;20064;-68
2021/06/20 00:03:18;;;;;;;32.28;15.75;;;;;;;10.54;91.97;99267.56;4896472;29;20096;-68
2021/06/20 00:05:58;;;;;;;37.33;14.20;;;;;;;10.54;90.52;99246.84;4897171;29;20394;-68
2021/06/20 00:08:24;;;;;;;30.27;13.57;;;;;;;10.52;89.89;99259.75;4890467;29;20039;-68
2021/06/20 00:10:51;;;;;;;27.38;14.40;;;;;;;10.50;91.67;99261.06;4887551;29;20596;-69
2021/06/20 00:13:18;;;;;;;24.23;13.45;;;;;;;10.56;91.41;99260.03;4892889;29;20037;-69
2021/06/20 00:15:44;;;;;;;29.83;14.77;;;;;;;10.48;91.25;99264.00;4891792;29;20055;-69
2021/06/20 00:18:09;;;;;;;28.38;13.05;;;;;;;10.44;90.02;99262.06;4897772;29;20120;-69
2021/06/20 00:20:38;;;;;;;29.80;13.18;;;;;;;10.35;90.67;99272.47;4887876;29;20041;-69
2021/06/20 00:23:04;;;;;;;28.85;13.45;;;;;;;10.31;90.57;99276.72;4894824;29;20032;-68
2021/06/20 00:25:30;;;;;;;24.90;13.20;;;;;;;10.27;90.89;99273.72;4897870;29;20040;-68
2021/06/20 00:27:57;;;;;;;28.55;13.45;;;;;;;10.25;91.00;99278.53;4893126;29;20123;-68
2021/06/20 00:30:27;;;;;;;23.85;13.60;;;;;;;10.20;90.92;99268.53;4898360;29;20037;-67
2021/06/20 00:32:53;;;;;;;18.70;12.60;;;;;;;10.23;91.60;99272.59;4901402;29;20064;-67
2021/06/20 00:35:19;;;;;;;19.63;12.48;;;;;;;10.18;90.56;99257.22;4895196;29;20036;-67
2021/06/20 00:37:46;;;;;;;24.25;12.30;;;;;;;10.18;91.59;99259.06;4897956;29;20032;-67
2021/06/20 00:40:12;;;;;;;27.98;12.10;;;;;;;10.06;89.77;99257.31;4892737;29;20149;-67
2021/06/20 00:42:38;;;;;;;21.20;12.38;;;;;;;10.11;90.52;99260.06;4893049;29;20135;-67
2021/06/20 00:45:06;;;;;;;26.05;12.65;;;;;;;10.04;90.18;99259.44;4893340;29;20473;-67
2021/06/20 00:47:31;;;;;;;25.65;12.60;;;;;;;10.08;90.69;99257.88;4897892;29;20119;-67
2021/06/20 00:49:57;;;;;;;32.10;14.65;;;;;;;10.10;91.33;99253.06;4893183;29;20115;-67
2021/06/20 00:52:23;;;;;;;34.35;14.35;;;;;;;10.16;90.99;99248.56;4894987;29;20059;-67
2021/06/20 00:54:49;;;;;;;23.75;14.23;;;;;;;10.19;91.46;99258.00;4897112;29;20056;-67
2021/06/20 00:57:20;;;;;;;21.13;13.75;;;;;;;10.12;91.17;99247.44;4893286;29;20045;-67
2021/06/20 00:59:47;;;;;;;29.35;14.00;;;;;;;10.08;90.88;99247.13;4884479;29;20517;-67
2021/06/20 01:02:14;;;;;;;27.73;15.85;;;;;;;10.10;91.74;99242.31;4894929;29;20048;-68
2021/06/20 01:04:45;;;;;;;30.80;14.13;;;;;;;10.04;91.33;99237.94;4895349;29;20037;-68
2021/06/20 01:07:15;;;;;;;28.65;14.43;;;;;;;10.04;91.82;99246.00;4896982;29;20104;-68
2021/06/20 01:09:41;;;;;;;29.48;14.82;;;;;;;10.03;91.85;99244.38;4896407;29;20037;-70
2021/06/20 01:12:07;;;;;;;30.58;16.85;;;;;;;9.94;90.86;99237.81;4893373;29;20394;-70
2021/06/20 01:14:35;;;;;;;29.27;15.60;;;;;;;9.88;92.37;99231.56;4896431;29;20032;-72
2021/06/20 01:17:01;;;;;;;26.73;13.35;;;;;;;9.83;90.62;99231.50;4892088;29;20072;-72
2021/06/20 01:19:27;;;;;;;23.95;12.80;;;;;;;9.72;91.10;99225.19;4893886;29;20056;-71
2021/06/20 01:21:54;;;;;;;26.30;14.20;;;;;;;9.70;91.69;99223.78;4893920;29;20046;-71
2021/06/20 01:24:19;;;;;;;26.40;14.35;;;;;;;9.72;92.30;99221.66;4889288;29;20047;-71
2021/06/20 01:26:45;;;;;;;27.83;15.43;;;;;;;9.74;92.94;99206.91;4886345;29;20111;-70
2021/06/20 01:29:13;;;;;;;30.10;17.00;;;;;;;9.84;93.76;99210.78;4892430;29;20071;-70
2021/06/20 01:31:48;;;;;;;29.95;17.00;;;;;;;9.86;92.40;99209.50;4896129;29;20036;-69
2021/06/20 01:34:13;;;;;;;29.48;15.85;;;;;;;9.82;93.19;99205.69;4893911;29;20129;-69
2021/06/20 01:36:39;;;;;;;37.30;17.55;;;;;;;9.85;93.29;99204.34;4896622;29;20072;-68
2021/06/20 01:39:05;;;;;;;28.75;16.00;;;;;;;9.80;92.13;99199.75;4895414;29;20119;-68
2021/06/20 01:41:31;;;;;;;28.17;16.80;;;;;;;9.78;92.06;99197.28;4894005;29;20033;-69
2021/06/20 01:43:57;;;;;;;24.45;15.10;;;;;;;9.70;92.90;99195.03;4892298;29;20037;-69
2021/06/20 01:46:23;;;;;;;32.40;16.55;;;;;;;9.70;92.60;99196.91;4895450;29;20036;-69
2021/06/20 01:48:48;;;;;;;40.47;16.45;;;;;;;9.76;92.83;99193.22;4896437;29;20055;-68
2021/06/20 01:51:14;;;;;;;28.60;15.88;;;;;;;9.68;92.33;99186.41;4891134;29;20052;-69
2021/06/20 01:53:40;;;;;;;26.52;15.02;;;;;;;9.70;92.03;99188.81;4894372;29;20036;-69
2021/06/20 01:56:05;;;;;;;26.45;15.63;;;;;;;9.63;92.16;99184.44;4894772;29;20056;-68
2021/06/20 01:58:31;;;;;;;31.65;15.48;;;;;;;9.70;92.36;99178.91;4893753;29;20079;-68
2021/06/20 02:00:57;;;;;;;34.60;16.67;;;;;;;9.69;92.44;99174.59;4896117;29;20101;-68
2021/06/20 02:03:27;;;;;;;27.80;16.55;;;;;;;9.70;92.58;99176.22;4884084;29;20040;-68
2021/06/20 02:05:57;;;;;;;33.65;17.55;;;;;;;9.70;93.05;99176.22;4890845;29;20033;-67
2021/06/20 02:08:23;;;;;;;26.35;16.90;;;;;;;9.66;92.74;99175.88;4896278;29;20032;-68
2021/06/20 02:10:50;;;;;;;29.83;17.38;;;;;;;9.66;92.33;99165.13;4890651;29;20423;-67
2021/06/20 02:13:17;;;;;;;25.23;14.40;;;;;;;9.66;91.62;99164.31;4895665;29;20025;-67
2021/06/20 02:15:43;;;;;;;26.58;15.50;;;;;;;9.68;92.06;99156.81;4887045;29;20036;-67
2021/06/20 02:18:10;;;;;;;26.38;16.02;;;;;;;9.65;93.18;99163.50;4895676;29;20032;-67
2021/06/20 02:20:38;;;;;;;32.17;15.98;;;;;;;9.66;92.57;99159.75;4889404;29;20024;-69
2021/06/20 02:23:04;;;;;;;25.77;16.05;;;;;;;9.65;92.88;99160.00;4894698;29;20032;-67
2021/06/20 02:25:30;;;;;;;25.15;14.80;;;;;;;9.70;91.88;99152.00;4893296;29;20064;-67
2021/06/20 02:27:55;;;;;;;27.13;13.50;;;;;;;9.68;90.33;99154.13;4895759;29;20570;-67
2021/06/20 02:30:22;;;;;;;24.52;13.48;;;;;;;9.71;91.48;99147.44;4887791;29;20045;-67
2021/06/20 02:32:49;;;;;;;19.02;12.35;;;;;;;9.60;90.30;99150.00;4895810;29;20041;-67
2021/06/20 02:35:15;;;;;;;23.00;13.00;;;;;;;9.53;91.00;99152.06;4892967;29;20149;-67
2021/06/20 02:37:43;;;;;;;23.20;13.35;;;;;;;9.51;90.38;99152.31;4886219;29;20430;-67
2021/06/20 02:40:09;;;;;;;23.13;13.93;;;;;;;9.51;90.61;99146.94;4886340;29;20055;-68
2021/06/20 02:42:35;;;;;;;23.20;13.10;;;;;;;9.50;90.92;99144.50;4883319;29;20036;-67
2021/06/20 02:45:06;;;;;;;23.38;14.23;;;;;;;9.49;91.56;99145.56;4895866;29;20426;-67
2021/06/20 02:47:31;;;;;;;20.35;13.40;;;;;;;9.45;90.85;99145.25;4887362;29;20036;-67
2021/06/20 02:49:57;;;;;;;25.55;14.80;;;;;;;9.49;91.72;99141.00;4895648;29;20033;-67
2021/06/20 02:52:23;;;;;;;25.13;14.35;;;;;;;9.44;91.73;99148.19;4892755;29;20485;-67
2021/06/20 02:54:49;;;;;;;25.38;13.65;;;;;;;9.52;90.23;99151.25;4890402;29;20534;-67
2021/06/20 02:57:25;;;;;;;19.60;12.80;;;;;;;9.50;89.98;99145.31;4892501;29;20404;-67
2021/06/20 02:59:55;;;;;;;20.08;13.20;;;;;;;9.46;91.40;99149.56;4893683;29;20052;-67
2021/06/20 03:02:21;;;;;;;30.45;13.90;;;;;;;9.49;91.74;99134.81;4890074;29;20064;-67
2021/06/20 03:04:48;;;;;;;21.80;15.13;;;;;;;9.46;92.28;99138.00;4884889;29;20040;-67
2021/06/20 03:07:14;;;;;;;23.27;15.05;;;;;;;9.49;91.87;99129.44;4895888;29;20037;-67
2021/06/20 03:09:39;;;;;;;31.33;16.17;;;;;;;9.44;92.10;99134.75;4899033;29;20036;-68
2021/06/20 03:12:07;;;;;;;28.08;17.48;;;;;;;9.51;92.90;99135.38;4896248;29;20052;-68
2021/06/20 03:14:34;;;;;;;33.03;17.70;;;;;;;9.62;91.88;99134.44;4894351;29;20025;-68
2021/06/20 03:17:01;;;;;;;29.38;17.95;;;;;;;9.62;91.59;99137.13;4890788;29;20036;-68
2021/06/20 03:19:27;;;;;;;25.92;17.85;;;;;;;9.61;92.08;99140.06;4889391;29;20029;-67
2021/06/20 03:21:59;;;;;;;36.10;19.05;;;;;;;9.61;92.69;99140.88;4889273;29;20149;-67
2021/06/20 03:24:26;;;;;;;30.25;20.00;;;;;;;9.63;93.35;99141.44;4893389;29;20037;-67
2021/06/20 03:26:52;;;;;;;29.75;20.10;;;;;;;9.61;91.96;99137.38;4899162;29;20034;-67
2021/06/20 03:29:18;;;;;;;33.13;19.40;;;;;;;9.58;92.01;99143.25;4886593;29;20115;-67
2021/06/20 03:31:43;;;;;;;31.75;19.55;;;;;;;9.52;92.46;99127.06;4892174;29;20040;-67
2021/06/20 03:34:09;;;;;;;32.33;20.23;;;;;;;9.52;92.19;99121.69;4898726;29;20040;-67
2021/06/20 03:36:35;;;;;;;29.50;19.83;;;;;;;9.48;91.85;99125.13;4894076;29;20040;-67
2021/06/20 03:39:01;;;;;;;38.85;21.73;;;;;;;9.51;92.69;99120.06;4890383;29;20044;-67
2021/06/20 03:41:27;;;;;;;36.97;23.20;;;;;;;9.49;92.07;99118.69;4892219;29;20044;-67
2021/06/20 03:43:53;;;;;;;41.22;23.65;;;;;;;9.53;93.25;99119.81;4897532;29;20394;-67
2021/06/20 03:46:18;;;;;;;36.00;23.45;;;;;;;9.49;92.82;99121.38;4892211;29;20029;-67
2021/06/20 03:48:45;;;;;;;34.60;24.50;;;;;;;9.54;92.64;99124.13;4892608;29;20089;-67
2021/06/20 03:51:11;;;;;;;38.72;25.15;;;;;;;9.51;92.62;99125.44;4897478;29;20041;-67
2021/06/20 03:53:37;;;;;;;40.20;26.38;;;;;;;9.60;93.12;99117.72;4894490;29;20044;-67
2021/06/20 03:56:03;;;;;;;48.72;27.95;;;;;;;9.58;93.20;99130.63;4896180;29;20127;-67
2021/06/20 03:58:29;;;;;;;43.28;27.83;;;;;;;9.55;92.58;99130.31;4893947;29;20551;-67
2021/06/20 04:00:54;;;;;;;45.75;26.45;;;;;;;9.58;92.82;99124.44;4897756;29;20044;-67
2021/06/20 04:03:20;;;;;;;45.38;27.23;;;;;;;9.53;92.85;99125.19;4893455;29;20088;-67
2021/06/20 04:05:46;;;;;;;41.65;25.88;;;;;;;9.48;93.26;99119.75;4895955;29;20032;-67
2021/06/20 04:08:12;;;;;;;37.97;25.90;;;;;;;9.44;93.05;99124.81;4897655;29;20123;-67
2021/06/20 04:10:38;;;;;;;43.50;25.25;;;;;;;9.44;93.04;99134.75;4894786;29;20111;-67
2021/06/20 04:13:03;;;;;;;46.03;25.15;;;;;;;9.41;92.79;99132.56;4893353;29;20040;-67
2021/06/20 04:15:30;;;;;;;44.20;25.88;;;;;;;9.39;92.81;99124.75;4893586;29;20668;-67
2021/06/20 04:17:56;;;;;;;40.08;25.50;;;;;;;9.48;93.18;99138.56;4897163;29;20100;-67
2021/06/20 04:20:22;;;;;;;42.03;24.75;;;;;;;9.52;93.34;99128.94;4890704;29;20377;-67
2021/06/20 04:22:48;;;;;;;34.15;21.45;;;;;;;9.45;92.10;99139.06;4896689;29;20039;-67
2021/06/20 04:25:15;;;;;;;33.75;21.38;;;;;;;9.43;92.86;99142.00;4897850;29;20040;-67
2021/06/20 04:27:42;;;;;;;38.05;21.02;;;;;;;9.37;92.35;99141.13;4897305;29;20127;-67
2021/06/20 04:30:11;;;;;;;35.75;21.25;;;;;;;9.31;92.40;99142.13;4888922;29;20036;-67
2021/06/20 04:32:38;;;;;;;37.88;21.83;;;;;;;9.32;92.67;99141.06;4891913;29;20051;-67
2021/06/20 04:35:04;;;;;;;30.88;20.05;;;;;;;9.30;92.34;99140.50;4892410;29;20088;-67
2021/06/20 04:37:30;;;;;;;37.90;21.15;;;;;;;9.31;92.56;99144.81;4897788;29;20040;-67
2021/06/20 04:39:55;;;;;;;36.63;20.65;;;;;;;9.32;92.78;99134.88;4893481;29;20099;-67
2021/06/20 04:42:23;;;;;;;35.97;20.83;;;;;;;9.27;92.82;99137.50;4892099;29;20048;-67
2021/06/20 04:44:48;;;;;;;44.35;23.00;;;;;;;9.26;93.84;99127.81;4893371;29;20612;-68
2021/06/20 04:47:16;;;;;;;37.70;23.65;;;;;;;9.38;92.43;99129.31;4897577;29;20364;-67
2021/06/20 04:49:42;;;;;;;34.92;23.20;;;;;;;9.38;93.50;99123.94;4889322;29;20032;-68
2021/06/20 04:52:10;;;;;;;35.28;23.40;;;;;;;9.44;92.88;99124.00;4895338;29;20084;-67
2021/06/20 04:54:49;;;;;;;35.22;24.40;;;;;;;9.44;93.62;99126.69;4896724;29;20028;-67
2021/06/20 04:57:35;;;;;;;36.78;23.30;;;;;;;9.42;93.12;99132.31;4897777;29;20040;-67
2021/06/20 05:00:01;;;;;;;41.13;24.80;;;;;;;9.45;93.10;99128.31;4892094;29;20520;-67
2021/06/20 05:02:28;;;;;;;41.22;24.30;;;;;;;9.51;93.02;99122.75;4887815;29;20045;-67
2021/06/20 05:04:54;;;;;;;38.08;23.83;;;;;;;9.52;92.62;99118.19;4893845;29;20071;-67
2021/06/20 05:07:20;;;;;;;38.33;23.10;;;;;;;9.49;93.18;99114.13;4896226;29;20035;-67
2021/06/20 05:09:46;;;;;;;40.20;23.67;;;;;;;9.53;92.38;99125.19;4892883;29;20040;-67
2021/06/20 05:12:13;;;;;;;35.25;23.17;;;;;;;9.58;92.93;99129.81;4893628;29;20399;-67
2021/06/20 05:14:44;;;;;;;38.70;24.45;;;;;;;9.53;92.87;99127.88;4897196;29;20043;-67
2021/06/20 05:17:11;;;;;;;40.35;25.83;;;;;;;9.54;93.08;99118.75;4888720;29;20040;-66
2021/06/20 05:19:37;;;;;;;43.78;25.55;;;;;;;9.56;92.93;99124.69;4893086;29;20029;-67
2021/06/20 05:22:03;;;;;;;40.33;24.38;;;;;;;9.58;92.80;99124.44;4897241;29;20041;-67
2021/06/20 05:24:29;;;;;;;38.53;25.25;;;;;;;9.62;92.99;99126.38;4896589;29;20043;-67
2021/06/20 05:26:55;;;;;;;40.53;26.20;;;;;;;9.67;92.96;99123.72;4896712;29;20032;-67
2021/06/20 05:29:20;;;;;;;41.92;24.90;;;;;;;9.68;92.75;99132.63;4891191;29;20436;-67
2021/06/20 05:31:46;;;;;;;43.15;26.65;;;;;;;9.69;93.51;99133.41;4893117;29;20128;-67
2021/06/20 05:34:11;;;;;;;45.08;25.15;;;;;;;9.71;92.93;99131.28;4894118;29;20035;-67
2021/06/20 05:36:37;;;;;;;37.38;24.90;;;;;;;9.73;93.48;99130.00;4896900;29;20475;-67
2021/06/20 05:39:03;;;;;;;42.03;25.27;;;;;;;9.79;92.35;99128.97;4891710;29;20123;-67
2021/06/20 05:41:29;;;;;;;39.47;25.17;;;;;;;9.82;92.56;99133.06;4890092;29;20056;-67
2021/06/20 05:43:55;;;;;;;40.67;24.38;;;;;;;9.77;92.89;99125.72;4896095;29;20044;-67
2021/06/20 05:46:25;;;;;;;37.22;24.10;;;;;;;9.80;92.72;99129.81;4892659;29;20138;-67
2021/06/20 05:48:51;;;;;;;40.80;24.42;;;;;;;9.86;92.35;99123.41;4893708;29;20036;-67
2021/06/20 05:51:17;;;;;;;38.40;23.35;;;;;;;9.91;92.24;99131.53;4890494;29;20045;-67
2021/06/20 05:53:44;;;;;;;38.47;23.95;;;;;;;9.94;92.23;99124.81;4896375;29;20483;-67
2021/06/20 05:56:09;;;;;;;33.50;23.52;;;;;;;9.87;92.34;99124.22;4893298;29;20041;-67
2021/06/20 05:58:35;;;;;;;34.72;23.65;;;;;;;9.94;92.28;99125.66;4892390;29;20055;-67
2021/06/20 06:01:01;;;;;;;40.28;23.20;;;;;;;10.02;91.90;99126.25;4893442;29;20055;-67
2021/06/20 06:03:26;;;;;;;34.55;23.00;;;;;;;10.01;91.58;99132.72;4892487;29;20035;-67
2021/06/20 06:05:53;;;;;;;32.65;21.67;;;;;;;9.98;91.58;99128.63;4892720;29;20033;-67
2021/06/20 06:08:19;;;;;;;43.80;23.13;;;;;;;10.01;91.66;99132.72;4893933;29;20723;-67
2021/06/20 06:10:44;;;;;;;43.53;22.45;;;;;;;10.07;91.69;99127.13;4896456;29;20033;-67
2021/06/20 06:13:10;;;;;;;40.28;23.33;;;;;;;9.93;91.60;99129.41;4893215;29;20032;-67
2021/06/20 06:15:35;;;;;;;34.00;21.60;;;;;;;9.99;91.67;99135.63;4892570;29;20035;-67
2021/06/20 06:18:01;;;;;;;36.00;21.70;;;;;;;9.98;91.02;99144.78;4895645;29;20136;-67
2021/06/20 06:20:27;;;;;;;31.83;22.63;;;;;;;10.06;91.71;99151.59;4893115;29;20081;-67
2021/06/20 06:22:53;;;;;;;28.85;20.80;;;;;;;10.07;90.84;99145.16;4892536;29;20032;-67
2021/06/20 06:25:19;;;;;;;37.65;21.27;;;;;;;10.10;90.93;99147.34;4895658;29;20036;-67
2021/06/20 06:27:46;;;;;;;32.83;20.67;;;;;;;10.08;91.09;99138.69;4895070;29;20096;-67
2021/06/20 06:30:12;;;;;;;26.88;18.55;;;;;;;10.04;90.79;99143.75;4887922;29;20048;-67
2021/06/20 06:32:41;;;;;;;27.60;20.48;;;;;;;10.03;91.00;99139.44;4891088;29;20451;-67
2021/06/20 06:35:09;;;;;;;28.05;18.52;;;;;;;10.16;90.62;99127.47;4892185;29;20086;-67
2021/06/20 06:37:35;;;;;;;30.35;18.60;;;;;;;10.13;90.32;99137.91;4891636;29;20060;-67
2021/06/20 06:40:04;;;;;;;33.10;18.42;;;;;;;10.20;90.74;99125.91;4894911;29;20510;-67
2021/06/20 06:42:30;;;;;;;31.98;17.92;;;;;;;10.20;90.70;99135.84;4892999;29;20085;-67
2021/06/20 06:44:57;;;;;;;32.60;17.08;;;;;;;10.27;89.16;99141.03;4888178;29;20040;-66
2021/06/20 06:47:23;;;;;;;30.05;16.33;;;;;;;10.19;89.47;99147.66;4899490;29;20097;-67
2021/06/20 06:49:49;;;;;;;26.27;16.40;;;;;;;10.24;90.18;99150.41;4893597;29;20140;-66
2021/06/20 06:52:16;;;;;;;23.67;15.95;;;;;;;10.28;89.81;99148.03;4893118;29;20517;-66
2021/06/20 06:54:50;;;;;;;24.40;15.23;;;;;;;10.27;89.65;99147.22;4897524;29;20543;-67
2021/06/20 06:57:17;;;;;;;24.35;16.58;;;;;;;10.36;90.33;99147.56;4899553;29;20040;-66
2021/06/20 06:59:43;;;;;;;27.83;15.82;;;;;;;10.36;88.80;99147.56;4894603;29;20091;-66
2021/06/20 07:02:09;;;;;;;24.17;15.48;;;;;;;10.29;89.51;99153.16;4895376;29;20048;-66
2021/06/20 07:04:35;;;;;;;24.77;16.15;;;;;;;10.33;89.82;99151.56;4899938;29;20037;-67
2021/06/20 07:07:01;;;;;;;26.63;16.50;;;;;;;10.37;89.72;99155.38;4893250;29;20127;-66
2021/06/20 07:09:26;;;;;;;24.13;14.43;;;;;;;10.35;89.78;99145.94;4894748;29;20043;-66
2021/06/20 07:11:52;;;;;;;28.88;16.33;;;;;;;10.37;90.15;99149.19;4895355;29;20087;-66
2021/06/20 07:14:18;;;;;;;25.77;16.35;;;;;;;10.43;91.49;99152.75;4899293;29;20440;-66
2021/06/20 07:16:44;;;;;;;29.20;15.55;;;;;;;10.54;90.27;99146.38;4895201;29;20037;-67
2021/06/20 07:19:10;;;;;;;27.08;14.98;;;;;;;10.61;88.95;99138.94;4899059;29;20036;-67
2021/06/20 07:21:35;;;;;;;22.67;12.57;;;;;;;10.58;86.94;99146.69;4898923;29;20128;-67
2021/06/20 07:24:01;;;;;;;17.92;12.77;;;;;;;10.63;87.83;99138.66;4897107;29;20140;-66
2021/06/20 07:26:26;;;;;;;28.83;14.38;;;;;;;10.65;88.10;99142.72;4893353;29;20144;-66
2021/06/20 07:28:53;;;;;;;20.90;14.50;;;;;;;10.75;88.05;99144.69;4890917;29;20037;-67
2021/06/20 07:31:18;;;;;;;22.65;13.20;;;;;;;10.58;87.22;99133.25;4890379;29;20112;-66
2021/06/20 07:33:45;;;;;;;28.40;15.25;;;;;;;10.52;89.32;99143.13;4898582;29;20562;-67
2021/06/20 07:36:11;;;;;;;22.63;14.43;;;;;;;10.45;88.26;99137.97;4895195;29;20045;-67
2021/06/20 07:38:37;;;;;;;27.92;15.30;;;;;;;10.47;88.71;99140.41;4895259;29;20079;-66
2021/06/20 07:41:04;;;;;;;27.60;16.20;;;;;;;10.49;89.11;99147.19;4898567;29;20068;-66
2021/06/20 07:43:30;;;;;;;25.80;14.52;;;;;;;10.40;88.24;99144.13;4894568;29;20039;-66
2021/06/20 07:45:56;;;;;;;27.33;15.63;;;;;;;10.40;89.18;99140.63;4897193;29;20032;-66
2021/06/20 07:48:24;;;;;;;28.63;17.60;;;;;;;10.36;90.57;99145.69;4895794;29;20044;-66
2021/06/20 07:50:53;;;;;;;31.38;17.50;;;;;;;10.34;88.70;99150.50;4894758;29;20036;-66
2021/06/20 07:53:18;;;;;;;23.88;18.20;;;;;;;10.50;90.52;99147.97;4895874;29;20025;-66
2021/06/20 07:55:44;;;;;;;34.42;19.55;;;;;;;10.54;89.33;99152.59;4897013;29;20081;-66
2021/06/20 07:58:10;;;;;;;35.75;20.17;;;;;;;10.71;89.54;99151.66;4894002;29;20045;-66
2021/06/20 08:00:36;;;;;;;33.55;19.08;;;;;;;10.64;89.44;99148.38;4893159;29;20514;-66
2021/06/20 08:03:01;;;;;;;26.80;18.55;;;;;;;10.58;88.87;99154.78;4898649;29;20037;-66
2021/06/20 08:05:27;;;;;;;29.80;18.60;;;;;;;10.65;89.10;99152.69;4896140;29;20104;-67
2021/06/20 08:07:52;;;;;;;27.98;18.73;;;;;;;10.72;88.06;99155.16;4892768;29;20128;-67
2021/06/20 08:10:18;;;;;;;33.47;19.02;;;;;;;10.71;89.02;99158.94;4895821;29;20039;-67
2021/06/20 08:12:44;;;;;;;35.35;17.98;;;;;;;10.79;88.79;99159.25;4895044;29;20167;-67
2021/06/20 08:15:10;;;;;;;26.45;16.30;;;;;;;10.63;87.05;99155.66;4898136;29;20414;-68
2021/06/20 08:17:36;;;;;;;30.08;17.42;;;;;;;10.50;88.63;99156.88;4886618;29;20029;-67
2021/06/20 08:20:03;;;;;;;26.88;17.75;;;;;;;10.58;88.30;99155.56;4897992;29;20040;-68
2021/06/20 08:22:29;;;;;;;25.13;16.23;;;;;;;10.61;87.36;99157.78;4885024;29;20554;-67
2021/06/20 08:24:55;;;;;;;35.33;17.27;;;;;;;10.82;88.23;99145.25;4896994;29;20040;-67
2021/06/20 08:27:20;;;;;;;33.08;17.05;;;;;;;11.08;88.53;99144.63;4893306;29;20033;-67
2021/06/20 08:29:48;;;;;;;27.73;16.45;;;;;;;11.14;86.79;99146.28;4878790;29;20741;-67
2021/06/20 08:32:14;;;;;;;28.95;15.18;;;;;;;11.28;85.95;99143.91;4556323;29;9999891;-67
2021/06/20 08:34:39;;;;;;;25.58;13.13;;;;;;;10.98;85.69;99148.88;4892577;29;20031;-67
2021/06/20 08:37:05;;;;;;;20.77;12.52;;;;;;;10.95;86.11;99143.19;4895469;29;20163;-66
2021/06/20 08:39:31;;;;;;;22.23;13.55;;;;;;;11.04;85.65;99138.13;4897129;29;20057;-67
2021/06/20 08:41:56;;;;;;;22.20;13.95;;;;;;;11.03;85.67;99140.00;4893686;29;20044;-66
2021/06/20 08:44:30;;;;;;;29.25;14.18;;;;;;;11.15;86.54;99144.38;4896253;29;20100;-67
2021/06/20 08:46:57;;;;;;;21.38;14.75;;;;;;;11.26;85.92;99141.50;4897350;29;20028;-67
2021/06/20 08:49:24;;;;;;;24.58;14.43;;;;;;;11.36;85.77;99135.31;4894620;29;20037;-67
2021/06/20 08:51:53;;;;;;;27.73;14.13;;;;;;;11.27;84.56;99136.91;4893402;29;20044;-67
2021/06/20 08:54:19;;;;;;;22.00;13.68;;;;;;;11.27;84.90;99134.19;4889539;29;20519;-67
2021/06/20 08:56:47;;;;;;;24.48;12.82;;;;;;;11.33;83.61;99130.47;4894463;29;20099;-67
2021/06/20 08:59:14;;;;;;;24.50;13.57;;;;;;;11.43;84.37;99132.41;4896172;29;20048;-67
2021/06/20 09:01:41;;;;;;;21.02;13.63;;;;;;;11.60;83.87;99134.09;4888366;29;20356;-67
2021/06/20 09:04:07;;;;;;;17.55;12.50;;;;;;;11.61;81.55;99139.22;4894811;29;20487;-67
2021/06/20 09:06:33;;;;;;;19.80;11.85;;;;;;;11.72;81.49;99137.34;4896332;29;20055;-66
2021/06/20 09:09:01;;;;;;;21.45;11.88;;;;;;;11.79;81.03;99146.00;4895405;29;20032;-67
2021/06/20 09:11:29;;;;;;;20.48;12.60;;;;;;;11.99;80.95;99144.44;4896568;29;20032;-67
2021/06/20 09:14:02;;;;;;;20.40;11.48;;;;;;;11.94;79.46;99150.66;4893703;29;20116;-67
2021/06/20 09:16:27;;;;;;;20.13;12.27;;;;;;;12.16;79.57;99141.56;4896420;29;20036;-67
2021/06/20 09:18:53;;;;;;;23.70;12.23;;;;;;;11.90;79.27;99140.66;4892021;29;20040;-66
2021/06/20 09:21:26;;;;;;;17.85;12.10;;;;;;;12.08;80.79;99150.97;4896807;29;20079;-67
2021/06/20 09:23:57;;;;;;;16.70;10.83;;;;;;;12.21;78.52;99144.25;4893355;29;20045;-66
2021/06/20 09:26:36;;;;;;;19.02;11.18;;;;;;;12.37;78.38;99153.19;4891750;29;20656;-67
2021/06/20 09:29:04;;;;;;;19.50;11.45;;;;;;;12.59;75.87;99147.50;4887216;29;20072;-67
2021/06/20 09:31:48;;;;;;;13.25;9.00;;;;;;;12.15;76.23;99142.63;4887952;29;20044;-67
2021/06/20 09:34:14;;;;;;;17.37;8.97;;;;;;;12.28;75.36;99155.59;4893709;29;20036;-66
2021/06/20 09:36:39;;;;;;;18.35;9.70;;;;;;;12.36;75.52;99153.44;4894641;29;20140;-66
2021/06/20 09:39:26;;;;;;;15.07;10.60;;;;;;;12.29;75.13;99149.13;4895553;29;20112;-67
2021/06/20 09:42:05;;;;;;;17.25;9.63;;;;;;;12.72;74.66;99153.44;4886081;29;20127;-66
2021/06/20 09:44:37;;;;;;;15.02;9.60;;;;;;;12.94;74.31;99152.34;4890984;29;20047;-66
2021/06/20 09:47:04;;;;;;;19.25;11.00;;;;;;;12.79;75.43;99151.28;4896317;29;20040;-66
2021/06/20 09:49:30;;;;;;;19.98;10.68;;;;;;;13.27;74.13;99148.22;4893770;29;20061;-66
2021/06/20 09:51:57;;;;;;;14.68;9.38;;;;;;;13.18;71.86;99147.16;4892459;29;20380;-66
2021/06/20 09:54:34;;;;;;;19.88;10.50;;;;;;;13.40;72.21;99146.03;4895989;29;20048;-66
2021/06/20 09:57:01;;;;;;;12.93;9.40;;;;;;;13.69;72.30;99148.09;4893501;29;20048;-67
2021/06/20 09:59:31;;;;;;;19.63;9.88;;;;;;;13.50;71.70;99153.34;4892699;29;20045;-67
2021/06/20 10:02:11;;;;;;;13.45;8.65;;;;;;;13.38;70.93;99146.31;4891325;29;21171;-66
2021/06/20 10:04:39;;;;;;;17.05;9.50;;;;;;;13.32;71.46;99144.72;4891451;29;20083;-67
2021/06/20 10:07:09;;;;;;;17.00;8.75;;;;;;;13.31;69.13;99143.88;4893924;29;20186;-67
2021/06/20 10:09:36;;;;;;;21.08;8.88;;;;;;;13.27;71.65;99144.72;4892741;29;20060;-67
2021/06/20 10:12:03;;;;;;;13.00;7.97;;;;;;;13.01;70.34;99148.28;4894359;29;20554;-67
2021/06/20 10:14:30;;;;;;;16.67;8.88;;;;;;;13.19;70.59;99137.97;4892667;29;20036;-65
2021/06/20 10:17:01;;;;;;;23.15;9.00;;;;;;;13.14;70.75;99136.06;4897445;29;20040;-66
2021/06/20 10:19:29;;;;;;;16.02;9.10;;;;;;;13.33;69.54;99146.34;4897749;29;20043;-66
2021/06/20 10:22:03;;;;;;;17.35;8.50;;;;;;;13.44;69.88;99133.59;4902332;29;20073;-67
2021/06/20 10:24:30;;;;;;;10.93;7.53;;;;;;;13.70;67.38;99139.72;4896835;29;20422;-66
2021/06/20 10:26:58;;;;;;;14.65;7.90;;;;;;;13.23;67.13;99141.75;4902123;29;20035;-66
2021/06/20 10:29:29;;;;;;;12.63;7.43;;;;;;;13.28;66.35;99140.94;4890371;29;20045;-66
2021/06/20 10:31:56;;;;;;;20.90;7.90;;;;;;;13.43;66.14;99146.31;4898486;29;20044;-66
2021/06/20 10:34:26;;;;;;;15.35;7.38;;;;;;;13.50;66.11;99150.63;4894522;29;20087;-66
2021/06/20 10:36:55;;;;;;;15.15;7.22;;;;;;;13.74;66.02;99151.59;4899695;29;20577;-67
2021/06/20 10:39:22;;;;;;;13.02;6.10;;;;;;;13.60;61.99;99147.88;4902551;29;20094;-66
2021/06/20 10:41:48;;;;;;;9.45;5.90;;;;;;;13.85;62.76;99155.06;4900338;29;20056;-66
2021/06/20 10:44:15;;;;;;;10.80;6.50;;;;;;;13.69;62.54;99154.34;4899062;29;20037;-67
2021/06/20 10:46:41;;;;;;;9.40;6.57;;;;;;;14.00;62.50;99148.75;4901993;29;20036;-67
2021/06/20 10:49:16;;;;;;;12.02;6.47;;;;;;;14.38;61.56;99150.97;4899812;29;20380;-66
2021/06/20 10:51:42;;;;;;;12.60;7.18;;;;;;;14.35;60.16;99141.47;4899704;29;20529;-66
2021/06/20 10:54:08;;;;;;;16.98;6.90;;;;;;;14.44;62.06;99141.69;4902054;29;20037;-66
2021/06/20 10:56:34;;;;;;;15.55;6.95;;;;;;;15.05;59.62;99149.59;4901447;29;20475;-66
2021/06/20 10:59:00;;;;;;;13.65;6.55;;;;;;;14.97;59.14;99155.63;4898652;29;20120;-65
2021/06/20 11:01:38;;;;;;;11.63;6.32;;;;;;;14.78;60.25;99146.31;4901468;29;20180;-65
2021/06/20 11:04:03;;;;;;;8.63;6.38;;;;;;;15.43;59.64;99141.59;4559347;29;10000429;-66
2021/06/20 11:06:29;;;;;;;10.65;6.22;;;;;;;15.07;58.78;99142.78;4898758;29;20483;-65
2021/06/20 11:09:13;;;;;;;12.45;6.25;;;;;;;15.57;59.25;99143.59;4896655;29;20087;-65
2021/06/20 11:11:51;;;;;;;13.55;6.55;;;;;;;15.40;58.52;99139.44;4897193;29;20558;-66
2021/06/20 11:14:18;;;;;;;11.43;6.28;;;;;;;15.14;58.95;99145.16;4897657;29;20115;-66
2021/06/20 11:16:46;;;;;;;11.20;6.18;;;;;;;14.51;59.63;99149.47;4900831;29;20486;-66
2021/06/20 11:19:11;;;;;;;11.18;6.50;;;;;;;14.21;60.02;99148.63;4900175;29;20090;-66
2021/06/20 11:21:37;;;;;;;13.30;6.90;;;;;;;14.15;61.61;99144.34;4898335;29;20598;-66